Time;durP1;ratioP1;P1;durP2;ratioP2;P2;SDS_P1;SDS_P2;PMS_P1;PMS_P2;Temp;Humidity;BMP_temperature;BMP_pressure;BME280_temperature;BME280_humidity;BME280_pressure;Samples;Min_cycle;Max_cycle;Signal;HPM_P1;HPM_P2
2022/09/28 00:01:42;;;;;;;0.98;0.52;;;21.10;49.10;;;;;;20732868;28;20030;-73
2022/09/28 00:11:42;;;;;;;1.75;0.68;;;21.10;49.10;;;;;;20732902;28;20045;-74
2022/09/28 00:21:43;;;;;;;0.90;0.60;;;21.00;49.20;;;;;;20755540;28;20388;-75
2022/09/28 00:31:44;;;;;;;1.27;0.70;;;21.00;49.30;;;;;;20737813;28;20451;-74
2022/09/28 00:41:45;;;;;;;0.60;0.55;;;20.90;49.30;;;;;;20737121;28;20496;-74
2022/09/28 00:51:46;;;;;;;0.52;0.40;;;20.90;49.30;;;;;;20735049;28;20452;-74
2022/09/28 01:01:47;;;;;;;1.52;0.70;;;20.90;49.40;;;;;;20736106;28;20149;-74
2022/09/28 01:11:47;;;;;;;0.45;0.40;;;20.90;49.50;;;;;;20735762;28;20131;-73
2022/09/28 01:22:17;;;;;;;0.55;0.38;;;20.80;49.50;;;;;;20751193;28;20038;-73
2022/09/28 01:32:31;;;;;;;1.20;0.40;;;20.80;49.50;;;;;;20731966;28;20128;-74
2022/09/28 01:42:32;;;;;;;1.42;0.70;;;20.80;49.60;;;;;;21091193;23;20043;-74
2022/09/28 01:52:35;;;;;;;1.07;0.60;;;20.80;49.60;;;;;;20679780;28;20506;-73
2022/09/28 02:02:47;;;;;;;1.30;0.73;;;20.70;49.60;;;;;;20665696;28;20278;-74
2022/09/28 02:12:59;;;;;;;1.20;0.70;;;20.70;49.60;;;;;;20592344;28;20034;-74
2022/09/28 02:23:00;;;;;;;0.85;0.50;;;20.70;49.70;;;;;;20632873;28;20034;-74
2022/09/28 02:33:08;;;;;;;1.17;0.32;;;20.60;49.60;;;;;;20648247;28;20046;-73
2022/09/28 02:43:18;;;;;;;0.63;0.40;;;20.60;49.60;;;;;;20650571;28;20038;-75
2022/09/28 02:53:59;;;;;;;1.05;0.50;;;20.60;49.60;;;;;;20653002;28;20026;-74
2022/09/28 03:04:31;;;;;;;0.68;0.40;;;20.50;49.60;;;;;;20663927;28;20377;-71
2022/09/28 03:14:32;;;;;;;0.90;0.60;;;20.50;49.60;;;;;;20738339;28;20041;-72
2022/09/28 03:24:33;;;;;;;0.95;0.50;;;20.40;49.50;;;;;;20706083;28;20045;-74
2022/09/28 03:34:34;;;;;;;0.52;0.45;;;20.40;49.50;;;;;;20668673;28;20532;-74
2022/09/28 03:44:35;;;;;;;0.65;0.45;;;20.40;49.40;;;;;;20668327;28;20090;-74
2022/09/28 03:54:36;;;;;;;0.80;0.52;;;20.40;49.50;;;;;;20636344;28;20050;-76
2022/09/28 04:04:36;;;;;;;0.52;0.50;;;20.30;49.40;;;;;;20676077;28;20057;-77
2022/09/28 04:14:37;;;;;;;1.02;0.60;;;20.30;49.50;;;;;;20673108;28;20073;-78
2022/09/28 04:24:39;;;;;;;1.05;0.60;;;20.30;49.60;;;;;;20655109;28;20039;-76
2022/09/28 04:34:39;;;;;;;2.55;0.68;;;20.20;49.60;;;;;;20646662;28;20473;-77
2022/09/28 04:44:40;;;;;;;0.47;0.40;;;20.20;49.60;;;;;;20651681;28;20164;-75
2022/09/28 04:54:43;;;;;;;0.95;0.60;;;20.20;49.70;;;;;;20636630;28;20195;-79
2022/09/28 05:04:44;;;;;;;1.05;0.65;;;20.20;49.80;;;;;;20638939;28;20038;-75
2022/09/28 05:14:59;;;;;;;0.30;0.30;;;20.20;49.80;;;;;;20657076;28;20023;-76
2022/09/28 05:25:01;;;;;;;1.77;0.63;;;20.10;49.90;;;;;;20665696;28;20173;-78
2022/09/28 05:35:07;;;;;;;2.15;0.77;;;20.10;50.00;;;;;;20660078;28;20058;-77
2022/09/28 05:45:20;;;;;;;0.40;0.40;;;20.10;50.00;;;;;;20657106;28;20038;-81
2022/09/28 05:55:21;;;;;;;1.65;0.43;;;20.10;50.10;;;;;;20647475;28;20056;-80
2022/09/28 06:05:23;;;;;;;0.90;0.57;;;20.00;50.10;;;;;;20698859;28;20121;-78
2022/09/28 06:15:25;;;;;;;0.73;0.47;;;20.00;50.20;;;;;;20683349;28;20034;-79
2022/09/28 06:25:26;;;;;;;0.57;0.55;;;20.00;50.30;;;;;;20629857;28;20046;-79
2022/09/28 06:35:29;;;;;;;0.50;0.50;;;20.00;50.30;;;;;;20659661;28;20460;-79
2022/09/28 06:45:31;;;;;;;0.80;0.73;;;19.90;50.30;;;;;;20643461;28;20042;-78
2022/09/28 06:55:52;;;;;;;1.40;0.70;;;19.90;50.40;;;;;;20601104;28;20397;-78
2022/09/28 07:05:54;;;;;;;0.87;0.60;;;19.90;50.50;;;;;;20665561;28;20042;-78
2022/09/28 07:16:07;;;;;;;1.27;0.60;;;19.90;50.50;;;;;;20739108;28;20313;-78
2022/09/28 07:26:08;;;;;;;0.50;0.38;;;19.90;50.60;;;;;;20688938;28;20145;-79
2022/09/28 07:36:26;;;;;;;0.80;0.75;;;19.80;50.60;;;;;;20658364;28;20118;-79
2022/09/28 07:46:28;;;;;;;3.63;0.60;;;19.80;50.70;;;;;;20651138;28;20465;-78
2022/09/28 07:56:33;;;;;;;0.40;0.40;;;19.80;50.80;;;;;;20649209;28;20042;-79
2022/09/28 08:07:10;;;;;;;2.22;0.80;;;19.80;50.90;;;;;;20705753;28;20053;-78
2022/09/28 08:17:11;;;;;;;1.15;0.65;;;19.70;50.90;;;;;;20651552;28;20060;-77
2022/09/28 08:27:17;;;;;;;0.50;0.50;;;19.80;51.00;;;;;;20685692;28;20477;-75
2022/09/28 08:37:18;;;;;;;1.17;0.50;;;19.70;51.70;;;;;;20650395;28;20061;-74
2022/09/28 08:58:22;;;;;;;1.30;0.40;;;19.70;51.10;;;;;;20680076;28;20116;-76
2022/09/28 09:08:33;;;;;;;1.55;0.50;;;19.70;51.20;;;;;;20655591;28;20046;-76
2022/09/28 09:18:36;;;;;;;0.70;0.43;;;19.70;51.20;;;;;;20673125;28;20127;-79
2022/09/28 09:29:04;;;;;;;2.95;0.60;;;19.70;51.20;;;;;;20737781;28;20037;-75
2022/09/28 09:39:13;;;;;;;0.40;0.32;;;19.70;51.20;;;;;;20662016;28;20030;-76
2022/09/28 09:49:38;;;;;;;1.67;0.63;;;19.70;51.20;;;;;;20669661;28;20046;-75
2022/09/28 09:59:40;;;;;;;1.23;0.60;;;19.70;51.20;;;;;;20717608;28;20432;-75
2022/09/28 10:09:50;;;;;;;1.25;0.40;;;19.70;51.20;;;;;;20627767;28;20048;-75
2022/09/28 10:20:13;;;;;;;0.98;0.45;;;19.70;51.20;;;;;;20638689;28;20366;-73
2022/09/28 10:30:27;;;;;;;0.40;0.40;;;19.70;51.30;;;;;;20636607;28;20038;-73
2022/09/28 10:40:39;;;;;;;1.67;1.08;;;19.60;51.40;;;;;;20649324;28;20030;-71
2022/09/28 10:50:40;;;;;;;0.82;0.52;;;19.60;51.40;;;;;;20627081;28;20485;-71
2022/09/28 11:00:45;;;;;;;0.53;0.47;;;19.60;51.50;;;;;;20643269;28;20100;-74
2022/09/28 11:11:06;;;;;;;0.53;0.50;;;19.60;51.50;;;;;;20711441;28;20044;-73
2022/09/28 11:21:08;;;;;;;1.67;0.60;;;19.50;51.50;;;;;;20562223;28;20114;-72
2022/09/28 11:31:10;;;;;;;1.55;0.50;;;19.50;52.20;;;;;;20585016;28;20173;-73
2022/09/28 11:41:49;;;;;;;2.53;0.50;;;19.50;51.60;;;;;;20642739;28;20512;-72
2022/09/28 11:51:50;;;;;;;0.63;0.47;;;19.50;51.60;;;;;;20644155;28;20053;-72
2022/09/28 12:01:54;;;;;;;0.38;0.22;;;19.50;51.60;;;;;;20638504;28;20049;-72
2022/09/28 12:12:34;;;;;;;0.52;0.45;;;19.50;51.80;;;;;;20669269;28;20042;-77
2022/09/28 12:22:44;;;;;;;0.68;0.43;;;19.40;51.80;;;;;;20674862;28;20034;-76
2022/09/28 12:33:08;;;;;;;1.65;0.60;;;19.40;51.90;;;;;;20638425;28;20046;-74
2022/09/28 12:43:28;;;;;;;1.38;0.70;;;19.40;52.00;;;;;;20652925;28;20046;-71
2022/09/28 12:53:48;;;;;;;2.00;0.60;;;19.40;52.00;;;;;;20648395;28;20093;-73
2022/09/28 13:04:02;;;;;;;2.10;1.00;;;19.30;52.70;;;;;;20623191;28;20077;-73
2022/09/28 13:14:26;;;;;;;2.85;1.13;;;19.30;52.00;;;;;;20654758;28;20480;-74
2022/09/28 13:24:30;;;;;;;2.22;1.10;;;19.30;52.10;;;;;;20639265;28;20050;-75
2022/09/28 13:34:32;;;;;;;1.45;0.85;;;19.30;52.10;;;;;;20672021;28;20065;-74
2022/09/28 13:44:51;;;;;;;1.95;0.75;;;19.30;52.20;;;;;;20669420;28;20034;-74
2022/09/28 13:55:25;;;;;;;3.58;0.88;;;19.30;52.10;;;;;;20653426;28;20038;-76
2022/09/28 14:06:12;;;;;;;1.77;0.80;;;19.30;52.20;;;;;;20645942;28;20469;-77
2022/09/28 14:16:26;;;;;;;0.60;0.60;;;19.30;52.20;;;;;;20630977;28;20073;-75
2022/09/28 14:26:48;;;;;;;1.30;0.68;;;19.30;52.20;;;;;;20650966;28;20329;-75
2022/09/28 14:47:41;;;;;;;1.02;0.70;;;19.20;52.30;;;;;;20652550;28;20500;-73
2022/09/28 14:57:42;;;;;;;1.17;0.65;;;19.20;52.40;;;;;;20666463;28;20050;-77
2022/09/28 15:07:49;;;;;;;1.17;0.60;;;19.20;52.40;;;;;;20710301;28;20034;-77
2022/09/28 15:17:53;;;;;;;1.15;0.70;;;19.10;53.10;;;;;;20633198;28;20331;-76
2022/09/28 15:27:58;;;;;;;1.92;0.70;;;19.10;52.40;;;;;;20652089;28;20046;-72
2022/09/28 15:37:59;;;;;;;0.60;0.60;;;19.10;52.40;;;;;;20625610;28;20042;-72
2022/09/28 15:48:21;;;;;;;0.65;0.57;;;19.10;52.40;;;;;;20626802;28;20042;-73
2022/09/28 15:58:23;;;;;;;0.93;0.43;;;19.00;52.50;;;;;;20671605;28;20081;-73
2022/09/28 16:08:31;;;;;;;0.68;0.63;;;19.10;52.50;;;;;;20693834;28;20046;-74
2022/09/28 16:18:34;;;;;;;1.00;0.70;;;19.00;52.60;;;;;;20656404;28;20117;-76
2022/09/28 16:28:39;;;;;;;1.25;0.50;;;19.00;52.60;;;;;;20641104;28;20460;-76
2022/09/28 16:38:43;;;;;;;1.47;0.80;;;19.00;52.70;;;;;;20669715;28;20034;-75
2022/09/28 16:48:47;;;;;;;0.80;0.40;;;19.00;52.70;;;;;;20653406;28;20042;-72
2022/09/28 16:58:49;;;;;;;1.42;0.70;;;19.00;52.90;;;;;;20662937;28;20042;-73
2022/09/28 17:08:51;;;;;;;4.25;0.60;;;18.90;52.90;;;;;;20668264;28;20042;-72
2022/09/28 17:18:51;;;;;;;0.77;0.65;;;18.90;53.00;;;;;;20652470;28;20034;-72
2022/09/28 17:28:52;;;;;;;0.93;0.75;;;18.90;53.10;;;;;;20631063;28;20045;-74
2022/09/28 17:38:54;;;;;;;2.65;1.40;;;18.90;53.10;;;;;;20664844;28;20126;-71
2022/09/28 17:48:56;;;;;;;1.65;1.02;;;18.80;53.20;;;;;;20627040;28;20428;-72
2022/09/28 17:59:05;;;;;;;1.65;0.90;;;18.80;53.20;;;;;;20661511;28;20049;-72
2022/09/28 18:09:07;;;;;;;1.75;1.17;;;18.80;53.20;;;;;;20643659;28;20112;-73
2022/09/28 18:19:08;;;;;;;1.75;0.98;;;18.80;53.30;;;;;;20644096;28;20145;-71
2022/09/28 18:29:09;;;;;;;4.27;1.27;;;18.80;53.40;;;;;;20623936;28;20431;-73
2022/09/28 18:39:10;;;;;;;1.13;0.70;;;18.80;53.40;;;;;;20632274;28;20281;-74
2022/09/28 18:49:11;;;;;;;1.80;1.08;;;18.70;53.40;;;;;;20639452;28;20045;-72
2022/09/28 18:59:12;;;;;;;2.72;1.55;;;18.80;53.60;;;;;;20627596;28;20046;-72
2022/09/28 19:09:13;;;;;;;2.03;1.13;;;18.70;53.60;;;;;;20642984;28;20052;-72
2022/09/28 19:19:15;;;;;;;1.23;1.05;;;18.70;53.60;;;;;;20632277;28;20034;-73
2022/09/28 19:29:15;;;;;;;2.05;1.27;;;18.80;53.70;;;;;;20643698;28;20042;-74
2022/09/28 19:39:17;;;;;;;1.30;1.08;;;18.70;53.70;;;;;;20675455;28;20045;-73
2022/09/28 19:49:18;;;;;;;1.38;0.90;;;18.70;53.80;;;;;;20680012;28;20038;-72
2022/09/28 19:59:19;;;;;;;2.38;1.35;;;18.60;53.70;;;;;;20642418;28;20492;-72
2022/09/28 20:09:19;;;;;;;1.10;0.90;;;18.70;53.80;;;;;;20678605;28;20061;-71
2022/09/28 20:19:21;;;;;;;1.48;1.17;;;18.60;53.80;;;;;;20656843;28;20084;-74
2022/09/28 20:29:23;;;;;;;2.40;0.88;;;18.60;53.90;;;;;;20655002;28;20074;-73
2022/09/28 20:39:23;;;;;;;1.52;0.90;;;18.60;53.90;;;;;;20716596;28;20053;-73
2022/09/28 20:49:25;;;;;;;1.60;0.80;;;18.60;53.90;;;;;;20718903;28;20042;-71
2022/09/28 20:59:26;;;;;;;2.08;1.00;;;18.50;53.90;;;;;;20677441;28;20281;-71
2022/09/28 21:09:28;;;;;;;2.77;1.07;;;18.50;54.00;;;;;;20642114;28;20034;-72
2022/09/28 21:19:29;;;;;;;1.40;0.88;;;18.50;54.70;;;;;;20636864;28;20273;-71
2022/09/28 21:29:30;;;;;;;1.38;1.00;;;18.50;54.00;;;;;;20671241;28;20061;-73
2022/09/28 21:39:30;;;;;;;0.88;0.70;;;18.50;54.10;;;;;;20675692;28;20088;-73
2022/09/28 21:49:31;;;;;;;1.10;1.00;;;18.40;54.00;;;;;;20632904;28;20389;-73
2022/09/28 21:59:31;;;;;;;2.40;0.90;;;18.40;54.00;;;;;;20633400;28;20285;-72
2022/09/28 22:09:32;;;;;;;1.60;0.77;;;18.40;54.10;;;;;;20648270;28;20034;-73
2022/09/28 22:19:33;;;;;;;1.40;0.98;;;18.50;54.10;;;;;;20631278;28;20046;-71
2022/09/28 22:29:33;;;;;;;3.03;1.07;;;18.40;54.10;;;;;;20728597;28;20659;-71
2022/09/28 22:39:34;;;;;;;2.72;0.82;;;18.40;54.10;;;;;;20715045;28;20289;-72
2022/09/28 22:49:35;;;;;;;1.48;0.80;;;18.30;54.70;;;;;;20645070;28;20473;-73
2022/09/28 22:59:35;;;;;;;1.63;1.00;;;18.40;54.80;;;;;;20627895;28;20030;-73
2022/09/28 23:09:36;;;;;;;0.82;0.60;;;18.30;54.00;;;;;;20628400;28;20034;-70
2022/09/28 23:19:36;;;;;;;1.20;0.80;;;18.30;54.00;;;;;;20644126;28;20034;-71
2022/09/28 23:29:44;;;;;;;0.82;0.68;;;18.30;54.00;;;;;;20587467;28;20043;-72
2022/09/28 23:39:45;;;;;;;1.70;1.00;;;18.30;53.90;;;;;;20654676;28;20037;-77
2022/09/28 23:49:46;;;;;;;1.45;0.90;;;18.30;53.90;;;;;;20707514;28;20042;-74
2022/09/28 23:59:46;;;;;;;1.05;0.55;;;18.20;54.20;;;;;;20646390;28;20038;-71
